sensor_id;sensor_type;location;lat;lon;timestamp;temperature;humidity
13650;DHT22;6898;50.918;4.688;2023-02-07T00:02:07;0.70;99.90
13650;DHT22;6898;50.918;4.688;2023-02-07T00:04:35;0.70;99.90
13650;DHT22;6898;50.918;4.688;2023-02-07T00:07:03;0.70;99.90
13650;DHT22;6898;50.918;4.688;2023-02-07T00:09:32;0.70;99.90
13650;DHT22;6898;50.918;4.688;2023-02-07T00:12:03;0.70;99.90
13650;DHT22;6898;50.918;4.688;2023-02-07T00:14:31;0.70;99.90
13650;DHT22;6898;50.918;4.688;2023-02-07T00:16:59;0.70;99.90
13650;DHT22;6898;50.918;4.688;2023-02-07T00:19:27;0.70;99.90
13650;DHT22;6898;50.918;4.688;2023-02-07T00:21:55;0.60;99.90
13650;DHT22;6898;50.918;4.688;2023-02-07T00:24:24;0.60;99.90
13650;DHT22;6898;50.918;4.688;2023-02-07T00:26:53;0.60;99.90
13650;DHT22;6898;50.918;4.688;2023-02-07T00:29:21;0.60;99.90
13650;DHT22;6898;50.918;4.688;2023-02-07T00:31:49;0.60;99.90
13650;DHT22;6898;50.918;4.688;2023-02-07T00:34:17;0.60;99.90
13650;DHT22;6898;50.918;4.688;2023-02-07T00:36:45;0.60;99.90
13650;DHT22;6898;50.918;4.688;2023-02-07T00:39:14;0.60;99.90
13650;DHT22;6898;50.918;4.688;2023-02-07T00:41:43;0.60;99.90
13650;DHT22;6898;50.918;4.688;2023-02-07T00:44:13;0.60;99.90
13650;DHT22;6898;50.918;4.688;2023-02-07T00:46:41;0.50;99.90
13650;DHT22;6898;50.918;4.688;2023-02-07T00:49:09;0.50;99.90
13650;DHT22;6898;50.918;4.688;2023-02-07T00:51:37;0.50;99.90
13650;DHT22;6898;50.918;4.688;2023-02-07T00:54:05;0.40;99.90
13650;DHT22;6898;50.918;4.688;2023-02-07T00:56:33;0.40;99.90
13650;DHT22;6898;50.918;4.688;2023-02-07T00:59:02;0.40;99.90
13650;DHT22;6898;50.918;4.688;2023-02-07T01:01:31;0.50;99.90
13650;DHT22;6898;50.918;4.688;2023-02-07T01:03:59;0.50;99.90
13650;DHT22;6898;50.918;4.688;2023-02-07T01:06:28;0.40;99.90
13650;DHT22;6898;50.918;4.688;2023-02-07T01:09:00;0.40;99.90
13650;DHT22;6898;50.918;4.688;2023-02-07T01:11:28;0.40;99.90
13650;DHT22;6898;50.918;4.688;2023-02-07T01:13:57;0.40;99.90
13650;DHT22;6898;50.918;4.688;2023-02-07T01:16:26;0.40;99.90
13650;DHT22;6898;50.918;4.688;2023-02-07T01:18:56;0.40;99.90
13650;DHT22;6898;50.918;4.688;2023-02-07T01:21:24;0.40;99.90
13650;DHT22;6898;50.918;4.688;2023-02-07T01:23:53;0.30;99.90
13650;DHT22;6898;50.918;4.688;2023-02-07T01:26:22;0.30;99.90
13650;DHT22;6898;50.918;4.688;2023-02-07T01:28:51;0.20;99.90
13650;DHT22;6898;50.918;4.688;2023-02-07T01:31:20;0.20;99.90
13650;DHT22;6898;50.918;4.688;2023-02-07T01:33:51;0.20;99.90
13650;DHT22;6898;50.918;4.688;2023-02-07T01:36:21;0.20;99.90
13650;DHT22;6898;50.918;4.688;2023-02-07T01:38:50;0.20;99.90
13650;DHT22;6898;50.918;4.688;2023-02-07T01:41:19;0.10;99.90
13650;DHT22;6898;50.918;4.688;2023-02-07T01:43:55;0.10;99.90
13650;DHT22;6898;50.918;4.688;2023-02-07T01:46:23;0.10;99.90
13650;DHT22;6898;50.918;4.688;2023-02-07T01:48:51;0.10;99.90
13650;DHT22;6898;50.918;4.688;2023-02-07T01:51:22;0.00;99.90
13650;DHT22;6898;50.918;4.688;2023-02-07T01:53:52;0.00;99.90
13650;DHT22;6898;50.918;4.688;2023-02-07T01:56:21;0.00;99.90
13650;DHT22;6898;50.918;4.688;2023-02-07T01:58:57;0.00;99.90
13650;DHT22;6898;50.918;4.688;2023-02-07T02:01:25;0.00;99.90
13650;DHT22;6898;50.918;4.688;2023-02-07T02:03:54;0.00;99.90
13650;DHT22;6898;50.918;4.688;2023-02-07T02:06:24;-0.10;99.90
13650;DHT22;6898;50.918;4.688;2023-02-07T02:08:53;-0.10;99.90
13650;DHT22;6898;50.918;4.688;2023-02-07T02:14:10;-0.10;99.90
13650;DHT22;6898;50.918;4.688;2023-02-07T02:16:41;-0.20;99.90
13650;DHT22;6898;50.918;4.688;2023-02-07T02:19:18;-0.20;99.90
13650;DHT22;6898;50.918;4.688;2023-02-07T02:22:01;-0.20;99.90
13650;DHT22;6898;50.918;4.688;2023-02-07T02:24:41;-0.20;99.90
13650;DHT22;6898;50.918;4.688;2023-02-07T02:27:17;-0.20;99.90
13650;DHT22;6898;50.918;4.688;2023-02-07T02:30:06;-0.20;99.90
13650;DHT22;6898;50.918;4.688;2023-02-07T02:35:35;-0.30;99.90
13650;DHT22;6898;50.918;4.688;2023-02-07T02:38:10;-0.30;99.90
13650;DHT22;6898;50.918;4.688;2023-02-07T02:40:42;-0.30;99.90
13650;DHT22;6898;50.918;4.688;2023-02-07T02:43:12;-0.40;99.90
13650;DHT22;6898;50.918;4.688;2023-02-07T02:45:42;-0.40;99.90
13650;DHT22;6898;50.918;4.688;2023-02-07T02:48:11;-0.50;99.90
13650;DHT22;6898;50.918;4.688;2023-02-07T02:50:43;-0.50;99.90
13650;DHT22;6898;50.918;4.688;2023-02-07T02:53:12;-0.50;99.90
13650;DHT22;6898;50.918;4.688;2023-02-07T02:55:45;-0.50;99.90
13650;DHT22;6898;50.918;4.688;2023-02-07T02:58:17;-0.50;99.90
13650;DHT22;6898;50.918;4.688;2023-02-07T03:00:51;-0.50;99.90
13650;DHT22;6898;50.918;4.688;2023-02-07T03:03:31;-0.50;99.90
13650;DHT22;6898;50.918;4.688;2023-02-07T03:06:05;-0.50;99.90
13650;DHT22;6898;50.918;4.688;2023-02-07T03:08:38;-0.50;99.90
13650;DHT22;6898;50.918;4.688;2023-02-07T03:11:08;-0.60;99.90
13650;DHT22;6898;50.918;4.688;2023-02-07T03:13:40;-0.60;99.90
13650;DHT22;6898;50.918;4.688;2023-02-07T03:16:11;-0.60;99.90
13650;DHT22;6898;50.918;4.688;2023-02-07T03:18:42;-0.60;99.90
13650;DHT22;6898;50.918;4.688;2023-02-07T03:21:17;-0.60;99.90
13650;DHT22;6898;50.918;4.688;2023-02-07T03:23:46;-0.60;99.90
13650;DHT22;6898;50.918;4.688;2023-02-07T03:26:15;-0.60;99.90
13650;DHT22;6898;50.918;4.688;2023-02-07T03:28:44;-0.70;99.90
13650;DHT22;6898;50.918;4.688;2023-02-07T03:31:13;-0.70;99.90
13650;DHT22;6898;50.918;4.688;2023-02-07T03:33:42;-0.80;99.90
13650;DHT22;6898;50.918;4.688;2023-02-07T03:36:11;-0.90;99.90
13650;DHT22;6898;50.918;4.688;2023-02-07T03:38:45;-0.90;99.90
13650;DHT22;6898;50.918;4.688;2023-02-07T03:41:14;-1.00;99.90
13650;DHT22;6898;50.918;4.688;2023-02-07T03:43:51;-1.00;99.90
13650;DHT22;6898;50.918;4.688;2023-02-07T03:46:19;-1.00;99.90
13650;DHT22;6898;50.918;4.688;2023-02-07T03:48:48;-1.10;99.90
13650;DHT22;6898;50.918;4.688;2023-02-07T03:51:16;-1.10;99.90
13650;DHT22;6898;50.918;4.688;2023-02-07T03:53:45;-1.10;99.90
13650;DHT22;6898;50.918;4.688;2023-02-07T03:56:13;-1.10;99.90
13650;DHT22;6898;50.918;4.688;2023-02-07T03:58:41;-1.20;99.90
13650;DHT22;6898;50.918;4.688;2023-02-07T04:01:09;-1.20;99.90
13650;DHT22;6898;50.918;4.688;2023-02-07T04:03:37;-1.20;99.90
13650;DHT22;6898;50.918;4.688;2023-02-07T04:06:05;-1.20;99.90
13650;DHT22;6898;50.918;4.688;2023-02-07T04:08:33;-1.20;99.90
13650;DHT22;6898;50.918;4.688;2023-02-07T04:11:04;-1.20;99.90
13650;DHT22;6898;50.918;4.688;2023-02-07T04:13:33;-1.20;99.90
13650;DHT22;6898;50.918;4.688;2023-02-07T04:16:03;-1.20;99.90
13650;DHT22;6898;50.918;4.688;2023-02-07T04:18:31;-1.20;99.90
13650;DHT22;6898;50.918;4.688;2023-02-07T04:20:59;-1.20;99.90
13650;DHT22;6898;50.918;4.688;2023-02-07T04:23:27;-1.20;99.90
13650;DHT22;6898;50.918;4.688;2023-02-07T04:25:55;-1.10;99.90
13650;DHT22;6898;50.918;4.688;2023-02-07T04:28:25;-1.20;99.90
13650;DHT22;6898;50.918;4.688;2023-02-07T04:30:53;-1.20;99.90
13650;DHT22;6898;50.918;4.688;2023-02-07T04:33:22;-1.20;99.90
13650;DHT22;6898;50.918;4.688;2023-02-07T04:35:52;-1.20;99.90
13650;DHT22;6898;50.918;4.688;2023-02-07T04:38:21;-1.20;99.90
13650;DHT22;6898;50.918;4.688;2023-02-07T04:40:49;-1.20;99.90
13650;DHT22;6898;50.918;4.688;2023-02-07T04:43:17;-1.30;99.90
13650;DHT22;6898;50.918;4.688;2023-02-07T04:45:46;-1.30;99.90
13650;DHT22;6898;50.918;4.688;2023-02-07T04:48:14;-1.30;99.90
13650;DHT22;6898;50.918;4.688;2023-02-07T04:50:42;-1.30;99.90
13650;DHT22;6898;50.918;4.688;2023-02-07T04:53:11;-1.30;99.90
13650;DHT22;6898;50.918;4.688;2023-02-07T04:55:39;-1.30;99.90
13650;DHT22;6898;50.918;4.688;2023-02-07T04:58:07;-1.30;99.90
13650;DHT22;6898;50.918;4.688;2023-02-07T05:00:35;-1.30;99.90
13650;DHT22;6898;50.918;4.688;2023-02-07T05:03:04;-1.30;99.90
13650;DHT22;6898;50.918;4.688;2023-02-07T05:05:32;-1.30;99.90
13650;DHT22;6898;50.918;4.688;2023-02-07T05:08:01;-1.30;99.90
13650;DHT22;6898;50.918;4.688;2023-02-07T05:10:29;-1.30;99.90
13650;DHT22;6898;50.918;4.688;2023-02-07T05:12:57;-1.40;99.90
13650;DHT22;6898;50.918;4.688;2023-02-07T05:15:25;-1.40;99.90
13650;DHT22;6898;50.918;4.688;2023-02-07T05:17:53;-1.40;99.90
13650;DHT22;6898;50.918;4.688;2023-02-07T05:20:24;-1.40;99.90
13650;DHT22;6898;50.918;4.688;2023-02-07T05:22:52;-1.40;99.90
13650;DHT22;6898;50.918;4.688;2023-02-07T05:25:20;-1.40;99.90
13650;DHT22;6898;50.918;4.688;2023-02-07T05:27:48;-1.40;99.90
13650;DHT22;6898;50.918;4.688;2023-02-07T05:30:17;-1.40;99.90
13650;DHT22;6898;50.918;4.688;2023-02-07T05:32:45;-1.40;99.90
13650;DHT22;6898;50.918;4.688;2023-02-07T05:35:33;-1.50;99.90
13650;DHT22;6898;50.918;4.688;2023-02-07T05:38:02;-1.40;99.90
13650;DHT22;6898;50.918;4.688;2023-02-07T05:40:32;-1.40;99.90
13650;DHT22;6898;50.918;4.688;2023-02-07T05:43:00;-1.40;99.90
13650;DHT22;6898;50.918;4.688;2023-02-07T05:45:28;-1.40;99.90
13650;DHT22;6898;50.918;4.688;2023-02-07T05:47:56;-1.50;99.90
13650;DHT22;6898;50.918;4.688;2023-02-07T05:50:24;-1.50;99.90
13650;DHT22;6898;50.918;4.688;2023-02-07T05:52:54;-1.50;99.90
13650;DHT22;6898;50.918;4.688;2023-02-07T05:55:22;-1.50;99.90
13650;DHT22;6898;50.918;4.688;2023-02-07T05:57:50;-1.60;99.90
13650;DHT22;6898;50.918;4.688;2023-02-07T06:00:18;-1.60;99.90
13650;DHT22;6898;50.918;4.688;2023-02-07T06:02:47;-1.60;99.90
13650;DHT22;6898;50.918;4.688;2023-02-07T06:05:15;-1.70;99.90
13650;DHT22;6898;50.918;4.688;2023-02-07T06:07:45;-1.70;99.90
13650;DHT22;6898;50.918;4.688;2023-02-07T06:10:15;-1.70;99.90
13650;DHT22;6898;50.918;4.688;2023-02-07T06:12:43;-1.80;99.90
13650;DHT22;6898;50.918;4.688;2023-02-07T06:15:11;-1.80;99.90
13650;DHT22;6898;50.918;4.688;2023-02-07T06:17:40;-1.80;99.90
13650;DHT22;6898;50.918;4.688;2023-02-07T06:20:08;-1.80;99.90
13650;DHT22;6898;50.918;4.688;2023-02-07T06:22:36;-1.80;99.90
13650;DHT22;6898;50.918;4.688;2023-02-07T06:25:05;-1.80;99.90
13650;DHT22;6898;50.918;4.688;2023-02-07T06:27:38;-1.80;99.90
13650;DHT22;6898;50.918;4.688;2023-02-07T06:30:07;-1.90;99.90
13650;DHT22;6898;50.918;4.688;2023-02-07T06:32:35;-1.90;99.90
13650;DHT22;6898;50.918;4.688;2023-02-07T06:35:03;-1.90;99.90
13650;DHT22;6898;50.918;4.688;2023-02-07T06:37:32;-1.90;99.90
13650;DHT22;6898;50.918;4.688;2023-02-07T06:40:00;-2.00;99.90
13650;DHT22;6898;50.918;4.688;2023-02-07T06:42:28;-2.00;99.90
13650;DHT22;6898;50.918;4.688;2023-02-07T06:44:58;-2.00;99.90
13650;DHT22;6898;50.918;4.688;2023-02-07T06:47:26;-2.10;99.90
13650;DHT22;6898;50.918;4.688;2023-02-07T06:49:54;-2.10;99.90
13650;DHT22;6898;50.918;4.688;2023-02-07T06:52:22;-2.10;99.90
13650;DHT22;6898;50.918;4.688;2023-02-07T06:54:50;-2.10;99.90
13650;DHT22;6898;50.918;4.688;2023-02-07T06:57:18;-2.20;99.90
13650;DHT22;6898;50.918;4.688;2023-02-07T06:59:46;-2.20;99.90
13650;DHT22;6898;50.918;4.688;2023-02-07T07:02:16;-2.20;99.90
13650;DHT22;6898;50.918;4.688;2023-02-07T07:04:44;-2.20;99.90
13650;DHT22;6898;50.918;4.688;2023-02-07T07:07:12;-2.10;99.90
13650;DHT22;6898;50.918;4.688;2023-02-07T07:09:40;-2.10;99.90
13650;DHT22;6898;50.918;4.688;2023-02-07T07:12:08;-2.10;99.90
13650;DHT22;6898;50.918;4.688;2023-02-07T07:14:36;-2.10;99.90
13650;DHT22;6898;50.918;4.688;2023-02-07T07:17:04;-2.10;99.90
13650;DHT22;6898;50.918;4.688;2023-02-07T07:19:34;-2.10;99.90
13650;DHT22;6898;50.918;4.688;2023-02-07T07:22:02;-2.00;99.90
13650;DHT22;6898;50.918;4.688;2023-02-07T07:24:30;-2.00;99.90
13650;DHT22;6898;50.918;4.688;2023-02-07T07:26:58;-2.00;99.90
13650;DHT22;6898;50.918;4.688;2023-02-07T07:29:26;-2.00;99.90
13650;DHT22;6898;50.918;4.688;2023-02-07T07:31:54;-2.00;99.90
13650;DHT22;6898;50.918;4.688;2023-02-07T07:34:22;-2.00;99.90
13650;DHT22;6898;50.918;4.688;2023-02-07T07:36:52;-2.00;99.90
13650;DHT22;6898;50.918;4.688;2023-02-07T07:39:22;-2.10;99.90
13650;DHT22;6898;50.918;4.688;2023-02-07T07:41:50;-2.10;99.90
13650;DHT22;6898;50.918;4.688;2023-02-07T07:44:18;-2.10;99.90
13650;DHT22;6898;50.918;4.688;2023-02-07T07:46:47;-2.10;99.90
13650;DHT22;6898;50.918;4.688;2023-02-07T07:49:15;-2.10;99.90
13650;DHT22;6898;50.918;4.688;2023-02-07T07:51:44;-2.10;99.90
13650;DHT22;6898;50.918;4.688;2023-02-07T07:54:13;-2.10;99.90
13650;DHT22;6898;50.918;4.688;2023-02-07T07:56:41;-2.00;99.90
13650;DHT22;6898;50.918;4.688;2023-02-07T07:59:09;-2.00;99.90
13650;DHT22;6898;50.918;4.688;2023-02-07T08:01:49;-1.70;99.90
13650;DHT22;6898;50.918;4.688;2023-02-07T08:04:17;-1.20;99.90
13650;DHT22;6898;50.918;4.688;2023-02-07T08:06:45;-0.60;99.90
13650;DHT22;6898;50.918;4.688;2023-02-07T08:09:15;0.00;99.90
13650;DHT22;6898;50.918;4.688;2023-02-07T08:11:43;0.50;99.90
13650;DHT22;6898;50.918;4.688;2023-02-07T08:14:11;0.90;99.90
13650;DHT22;6898;50.918;4.688;2023-02-07T08:16:39;1.00;99.90
13650;DHT22;6898;50.918;4.688;2023-02-07T08:19:08;1.20;99.90
13650;DHT22;6898;50.918;4.688;2023-02-07T08:21:36;1.50;99.90
13650;DHT22;6898;50.918;4.688;2023-02-07T08:24:04;1.70;99.90
13650;DHT22;6898;50.918;4.688;2023-02-07T08:26:33;1.60;99.90
13650;DHT22;6898;50.918;4.688;2023-02-07T08:29:01;1.30;99.90
13650;DHT22;6898;50.918;4.688;2023-02-07T08:31:29;1.00;99.90
13650;DHT22;6898;50.918;4.688;2023-02-07T08:33:58;0.70;99.90
13650;DHT22;6898;50.918;4.688;2023-02-07T08:36:26;0.40;99.90
13650;DHT22;6898;50.918;4.688;2023-02-07T08:38:54;0.20;99.90
13650;DHT22;6898;50.918;4.688;2023-02-07T08:41:22;0.00;99.90
13650;DHT22;6898;50.918;4.688;2023-02-07T08:43:51;0.00;99.90
13650;DHT22;6898;50.918;4.688;2023-02-07T08:46:19;-0.10;99.90
13650;DHT22;6898;50.918;4.688;2023-02-07T08:48:47;-0.10;99.90
13650;DHT22;6898;50.918;4.688;2023-02-07T08:51:15;-0.10;99.90
13650;DHT22;6898;50.918;4.688;2023-02-07T08:53:43;-0.10;99.90
13650;DHT22;6898;50.918;4.688;2023-02-07T09:58:12;1.30;99.90
13650;DHT22;6898;50.918;4.688;2023-02-07T10:00:42;1.60;99.90
13650;DHT22;6898;50.918;4.688;2023-02-07T10:03:16;1.60;99.90
13650;DHT22;6898;50.918;4.688;2023-02-07T10:05:49;1.80;99.90
13650;DHT22;6898;50.918;4.688;2023-02-07T10:08:19;2.00;99.90
13650;DHT22;6898;50.918;4.688;2023-02-07T10:10:59;2.30;99.90
13650;DHT22;6898;50.918;4.688;2023-02-07T10:13:46;2.10;99.90
13650;DHT22;6898;50.918;4.688;2023-02-07T10:16:27;2.00;99.90
13650;DHT22;6898;50.918;4.688;2023-02-07T10:19:01;2.10;99.90
13650;DHT22;6898;50.918;4.688;2023-02-07T10:21:38;2.20;99.90
13650;DHT22;6898;50.918;4.688;2023-02-07T10:24:22;2.10;99.90
13650;DHT22;6898;50.918;4.688;2023-02-07T10:26:59;2.20;99.90
13650;DHT22;6898;50.918;4.688;2023-02-07T10:29:44;2.20;99.90
13650;DHT22;6898;50.918;4.688;2023-02-07T10:32:16;2.20;99.90
13650;DHT22;6898;50.918;4.688;2023-02-07T10:34:47;2.20;99.90
13650;DHT22;6898;50.918;4.688;2023-02-07T10:37:19;2.20;99.90
13650;DHT22;6898;50.918;4.688;2023-02-07T10:39:53;2.30;99.90
13650;DHT22;6898;50.918;4.688;2023-02-07T10:42:26;2.30;99.90
13650;DHT22;6898;50.918;4.688;2023-02-07T10:44:57;2.30;99.90
13650;DHT22;6898;50.918;4.688;2023-02-07T10:47:28;2.30;99.90
13650;DHT22;6898;50.918;4.688;2023-02-07T10:50:38;2.40;99.90
13650;DHT22;6898;50.918;4.688;2023-02-07T10:53:06;2.50;99.90
13650;DHT22;6898;50.918;4.688;2023-02-07T10:55:41;2.90;99.90
13650;DHT22;6898;50.918;4.688;2023-02-07T10:58:14;3.40;99.90
13650;DHT22;6898;50.918;4.688;2023-02-07T11:00:51;4.60;99.90
13650;DHT22;6898;50.918;4.688;2023-02-07T11:03:21;5.80;99.90
13650;DHT22;6898;50.918;4.688;2023-02-07T11:06:06;7.10;99.90
13650;DHT22;6898;50.918;4.688;2023-02-07T11:08:36;8.20;99.90
13650;DHT22;6898;50.918;4.688;2023-02-07T11:11:24;9.00;99.90
13650;DHT22;6898;50.918;4.688;2023-02-07T11:13:53;9.70;99.90
13650;DHT22;6898;50.918;4.688;2023-02-07T11:16:23;10.30;99.90
13650;DHT22;6898;50.918;4.688;2023-02-07T11:18:55;11.00;99.90
13650;DHT22;6898;50.918;4.688;2023-02-07T11:21:28;11.90;99.90
13650;DHT22;6898;50.918;4.688;2023-02-07T11:24:00;12.60;99.90
13650;DHT22;6898;50.918;4.688;2023-02-07T11:26:30;12.90;99.90
13650;DHT22;6898;50.918;4.688;2023-02-07T11:29:05;13.00;99.90
13650;DHT22;6898;50.918;4.688;2023-02-07T11:31:40;13.10;99.90
13650;DHT22;6898;50.918;4.688;2023-02-07T11:34:25;13.50;99.90
13650;DHT22;6898;50.918;4.688;2023-02-07T11:36:55;13.90;99.90
13650;DHT22;6898;50.918;4.688;2023-02-07T11:39:34;14.30;99.90
13650;DHT22;6898;50.918;4.688;2023-02-07T11:42:11;14.70;99.90
13650;DHT22;6898;50.918;4.688;2023-02-07T11:44:41;15.10;99.90
13650;DHT22;6898;50.918;4.688;2023-02-07T11:47:15;15.40;99.90
13650;DHT22;6898;50.918;4.688;2023-02-07T11:49:46;15.20;99.90
13650;DHT22;6898;50.918;4.688;2023-02-07T11:52:16;14.10;99.90
13650;DHT22;6898;50.918;4.688;2023-02-07T11:54:50;12.90;99.90
13650;DHT22;6898;50.918;4.688;2023-02-07T11:57:20;11.90;99.90
13650;DHT22;6898;50.918;4.688;2023-02-07T11:59:57;10.80;99.90
13650;DHT22;6898;50.918;4.688;2023-02-07T12:02:29;9.90;99.90
13650;DHT22;6898;50.918;4.688;2023-02-07T12:05:12;9.20;99.90
13650;DHT22;6898;50.918;4.688;2023-02-07T12:07:46;8.50;99.90
13650;DHT22;6898;50.918;4.688;2023-02-07T12:10:20;7.90;99.90
13650;DHT22;6898;50.918;4.688;2023-02-07T12:12:52;7.40;99.90
13650;DHT22;6898;50.918;4.688;2023-02-07T12:15:24;7.00;99.90
13650;DHT22;6898;50.918;4.688;2023-02-07T12:17:59;6.70;99.90
13650;DHT22;6898;50.918;4.688;2023-02-07T12:20:34;6.50;99.90
13650;DHT22;6898;50.918;4.688;2023-02-07T12:23:07;6.20;99.90
13650;DHT22;6898;50.918;4.688;2023-02-07T12:26:02;6.00;99.90
13650;DHT22;6898;50.918;4.688;2023-02-07T12:28:38;5.80;99.90
13650;DHT22;6898;50.918;4.688;2023-02-07T12:31:21;6.00;99.90
13650;DHT22;6898;50.918;4.688;2023-02-07T12:33:59;5.80;99.90
13650;DHT22;6898;50.918;4.688;2023-02-07T12:36:33;6.30;99.90
13650;DHT22;6898;50.918;4.688;2023-02-07T12:39:09;5.80;99.90
13650;DHT22;6898;50.918;4.688;2023-02-07T12:41:42;5.70;99.90
13650;DHT22;6898;50.918;4.688;2023-02-07T12:44:16;5.80;99.90
13650;DHT22;6898;50.918;4.688;2023-02-07T12:46:56;5.70;99.90
13650;DHT22;6898;50.918;4.688;2023-02-07T12:50:01;5.60;99.90
13650;DHT22;6898;50.918;4.688;2023-02-07T12:52:39;5.60;99.90
13650;DHT22;6898;50.918;4.688;2023-02-07T12:55:22;5.50;99.90
13650;DHT22;6898;50.918;4.688;2023-02-07T12:58:07;5.60;99.90
13650;DHT22;6898;50.918;4.688;2023-02-07T13:00:50;5.60;99.90
13650;DHT22;6898;50.918;4.688;2023-02-07T13:03:28;5.50;99.90
13650;DHT22;6898;50.918;4.688;2023-02-07T13:06:11;5.40;99.90
13650;DHT22;6898;50.918;4.688;2023-02-07T13:08:53;5.30;99.90
13650;DHT22;6898;50.918;4.688;2023-02-07T13:11:31;5.20;99.90
13650;DHT22;6898;50.918;4.688;2023-02-07T13:14:14;5.10;99.90
13650;DHT22;6898;50.918;4.688;2023-02-07T13:16:49;5.30;99.90
13650;DHT22;6898;50.918;4.688;2023-02-07T13:19:30;5.30;99.90
13650;DHT22;6898;50.918;4.688;2023-02-07T13:22:06;5.30;99.90
13650;DHT22;6898;50.918;4.688;2023-02-07T13:24:39;5.20;99.90
13650;DHT22;6898;50.918;4.688;2023-02-07T13:27:13;5.20;99.90
13650;DHT22;6898;50.918;4.688;2023-02-07T13:29:45;5.40;99.90
13650;DHT22;6898;50.918;4.688;2023-02-07T13:32:19;5.50;99.90
13650;DHT22;6898;50.918;4.688;2023-02-07T13:34:52;5.90;99.90
13650;DHT22;6898;50.918;4.688;2023-02-07T13:37:30;5.60;99.90
13650;DHT22;6898;50.918;4.688;2023-02-07T13:40:04;5.70;99.90
13650;DHT22;6898;50.918;4.688;2023-02-07T13:42:46;5.70;99.90
13650;DHT22;6898;50.918;4.688;2023-02-07T13:45:20;5.70;99.90
13650;DHT22;6898;50.918;4.688;2023-02-07T13:47:56;5.70;99.90
13650;DHT22;6898;50.918;4.688;2023-02-07T13:50:38;5.60;99.90
13650;DHT22;6898;50.918;4.688;2023-02-07T13:53:33;5.60;99.90
13650;DHT22;6898;50.918;4.688;2023-02-07T13:56:08;5.70;99.90
13650;DHT22;6898;50.918;4.688;2023-02-07T13:58:58;5.80;99.90
13650;DHT22;6898;50.918;4.688;2023-02-07T14:01:50;5.80;99.90
13650;DHT22;6898;50.918;4.688;2023-02-07T14:04:20;5.80;99.90
13650;DHT22;6898;50.918;4.688;2023-02-07T14:06:59;5.80;99.90
13650;DHT22;6898;50.918;4.688;2023-02-07T14:09:35;6.30;99.90
13650;DHT22;6898;50.918;4.688;2023-02-07T14:12:07;5.80;99.90
13650;DHT22;6898;50.918;4.688;2023-02-07T14:14:44;5.80;99.90
13650;DHT22;6898;50.918;4.688;2023-02-07T14:17:54;5.90;99.90
13650;DHT22;6898;50.918;4.688;2023-02-07T14:20:48;5.90;99.90
13650;DHT22;6898;50.918;4.688;2023-02-07T14:23:18;5.80;99.90
13650;DHT22;6898;50.918;4.688;2023-02-07T14:25:48;5.80;99.90
13650;DHT22;6898;50.918;4.688;2023-02-07T14:28:29;5.80;99.90
13650;DHT22;6898;50.918;4.688;2023-02-07T14:31:10;5.80;99.90
13650;DHT22;6898;50.918;4.688;2023-02-07T14:33:40;5.80;99.90
13650;DHT22;6898;50.918;4.688;2023-02-07T14:36:23;5.80;99.90
13650;DHT22;6898;50.918;4.688;2023-02-07T14:39:21;5.80;99.90
13650;DHT22;6898;50.918;4.688;2023-02-07T14:42:01;5.90;99.90
13650;DHT22;6898;50.918;4.688;2023-02-07T14:44:34;5.90;99.90
13650;DHT22;6898;50.918;4.688;2023-02-07T14:47:06;5.90;99.90
13650;DHT22;6898;50.918;4.688;2023-02-07T14:49:37;6.00;99.90
13650;DHT22;6898;50.918;4.688;2023-02-07T14:52:10;5.80;99.90
13650;DHT22;6898;50.918;4.688;2023-02-07T14:54:42;5.80;99.90
13650;DHT22;6898;50.918;4.688;2023-02-07T14:57:24;5.80;99.90
13650;DHT22;6898;50.918;4.688;2023-02-07T14:59:58;5.70;99.90
13650;DHT22;6898;50.918;4.688;2023-02-07T15:02:31;5.80;99.90
13650;DHT22;6898;50.918;4.688;2023-02-07T15:05:16;5.80;99.90
13650;DHT22;6898;50.918;4.688;2023-02-07T15:07:45;5.90;99.90
13650;DHT22;6898;50.918;4.688;2023-02-07T15:10:16;5.90;99.90
13650;DHT22;6898;50.918;4.688;2023-02-07T15:12:45;5.90;99.90
13650;DHT22;6898;50.918;4.688;2023-02-07T15:15:19;5.90;99.90
13650;DHT22;6898;50.918;4.688;2023-02-07T15:17:49;5.90;99.90
13650;DHT22;6898;50.918;4.688;2023-02-07T15:20:22;5.90;99.90
13650;DHT22;6898;50.918;4.688;2023-02-07T15:22:53;5.90;99.90
13650;DHT22;6898;50.918;4.688;2023-02-07T15:25:21;5.90;99.90
13650;DHT22;6898;50.918;4.688;2023-02-07T15:28:03;5.90;99.90
13650;DHT22;6898;50.918;4.688;2023-02-07T15:30:35;5.90;99.90
13650;DHT22;6898;50.918;4.688;2023-02-07T15:33:10;5.90;99.90
13650;DHT22;6898;50.918;4.688;2023-02-07T15:35:39;5.80;99.90
13650;DHT22;6898;50.918;4.688;2023-02-07T15:38:15;5.80;99.90
13650;DHT22;6898;50.918;4.688;2023-02-07T15:40:44;5.80;99.90
13650;DHT22;6898;50.918;4.688;2023-02-07T15:43:34;5.80;99.90
13650;DHT22;6898;50.918;4.688;2023-02-07T15:46:06;5.80;99.90
13650;DHT22;6898;50.918;4.688;2023-02-07T15:48:47;5.70;99.90
13650;DHT22;6898;50.918;4.688;2023-02-07T15:51:18;6.00;99.90
13650;DHT22;6898;50.918;4.688;2023-02-07T15:53:49;5.60;99.90
13650;DHT22;6898;50.918;4.688;2023-02-07T15:56:18;5.60;99.90
13650;DHT22;6898;50.918;4.688;2023-02-07T15:58:48;5.50;99.90
13650;DHT22;6898;50.918;4.688;2023-02-07T16:01:22;5.50;99.90
13650;DHT22;6898;50.918;4.688;2023-02-07T16:03:53;5.40;99.90
13650;DHT22;6898;50.918;4.688;2023-02-07T16:06:24;5.40;99.90
13650;DHT22;6898;50.918;4.688;2023-02-07T16:08:55;5.90;99.90
13650;DHT22;6898;50.918;4.688;2023-02-07T16:11:36;5.30;99.90
13650;DHT22;6898;50.918;4.688;2023-02-07T16:14:17;5.20;99.90
13650;DHT22;6898;50.918;4.688;2023-02-07T16:16:48;5.30;99.90
13650;DHT22;6898;50.918;4.688;2023-02-07T16:19:18;5.30;99.90
13650;DHT22;6898;50.918;4.688;2023-02-07T16:21:54;5.10;99.90
13650;DHT22;6898;50.918;4.688;2023-02-07T16:24:25;5.00;99.90
13650;DHT22;6898;50.918;4.688;2023-02-07T16:26:54;5.20;99.90
13650;DHT22;6898;50.918;4.688;2023-02-07T16:29:26;4.90;99.90
13650;DHT22;6898;50.918;4.688;2023-02-07T16:31:55;4.90;99.90
13650;DHT22;6898;50.918;4.688;2023-02-07T16:34:23;5.30;99.90
13650;DHT22;6898;50.918;4.688;2023-02-07T16:36:53;5.00;99.90
13650;DHT22;6898;50.918;4.688;2023-02-07T16:39:22;4.80;99.90
13650;DHT22;6898;50.918;4.688;2023-02-07T16:41:53;4.70;99.90
13650;DHT22;6898;50.918;4.688;2023-02-07T16:44:23;4.60;99.90
13650;DHT22;6898;50.918;4.688;2023-02-07T16:46:53;4.50;99.90
13650;DHT22;6898;50.918;4.688;2023-02-07T16:49:23;4.50;99.90
13650;DHT22;6898;50.918;4.688;2023-02-07T16:51:52;4.50;99.90
13650;DHT22;6898;50.918;4.688;2023-02-07T16:54:20;4.40;99.90
13650;DHT22;6898;50.918;4.688;2023-02-07T16:56:51;4.30;99.90
13650;DHT22;6898;50.918;4.688;2023-02-07T16:59:22;4.30;99.90
13650;DHT22;6898;50.918;4.688;2023-02-07T17:01:53;4.30;99.90
13650;DHT22;6898;50.918;4.688;2023-02-07T17:04:22;4.30;99.90
13650;DHT22;6898;50.918;4.688;2023-02-07T17:06:50;4.50;99.90
13650;DHT22;6898;50.918;4.688;2023-02-07T17:09:20;4.10;99.90
13650;DHT22;6898;50.918;4.688;2023-02-07T17:11:50;4.00;99.90
13650;DHT22;6898;50.918;4.688;2023-02-07T17:14:18;4.00;99.90
13650;DHT22;6898;50.918;4.688;2023-02-07T17:16:47;4.00;99.90
13650;DHT22;6898;50.918;4.688;2023-02-07T17:19:19;4.00;99.90
13650;DHT22;6898;50.918;4.688;2023-02-07T17:21:50;4.00;99.90
13650;DHT22;6898;50.918;4.688;2023-02-07T17:24:19;4.00;99.90
13650;DHT22;6898;50.918;4.688;2023-02-07T17:26:49;3.90;99.90
13650;DHT22;6898;50.918;4.688;2023-02-07T17:29:18;3.90;99.90
13650;DHT22;6898;50.918;4.688;2023-02-07T17:31:47;3.90;99.90
13650;DHT22;6898;50.918;4.688;2023-02-07T17:34:17;3.90;99.90